createdAt,value
2023-08-12T00:02:17.237Z,2.25
2023-08-12T00:04:43.775Z,2.42
2023-08-12T00:07:10.623Z,2.33
2023-08-12T00:09:37.288Z,2.70
2023-08-12T00:12:04.008Z,2.15
2023-08-12T00:14:30.782Z,2.30
2023-08-12T00:16:57.776Z,2.20
2023-08-12T00:19:24.223Z,2.50
2023-08-12T00:21:53.332Z,2.22
2023-08-12T00:24:19.806Z,2.10
2023-08-12T00:26:46.356Z,2.85
2023-08-12T00:29:12.800Z,2.80
2023-08-12T00:31:39.266Z,2.28
2023-08-12T00:34:05.819Z,2.40
2023-08-12T00:36:32.293Z,2.08
2023-08-12T00:38:58.797Z,2.17
2023-08-12T00:41:25.260Z,2.63
2023-08-12T00:43:51.736Z,2.10
2023-08-12T00:46:18.535Z,3.30
2023-08-12T00:48:45.046Z,3.60
2023-08-12T00:51:11.585Z,2.50
2023-08-12T00:53:38.419Z,2.58
2023-08-12T00:56:05.333Z,2.25
2023-08-12T00:58:32.168Z,1.85
2023-08-12T01:01:00.562Z,2.30
2023-08-12T01:03:27.482Z,2.40
2023-08-12T01:05:54.039Z,2.20
2023-08-12T01:08:20.482Z,2.42
2023-08-12T01:10:53.476Z,2.40
2023-08-12T01:13:53.275Z,2.58
2023-08-12T01:16:22.278Z,2.35
2023-08-12T01:18:51.077Z,2.50
2023-08-12T01:21:18.315Z,1.98
2023-08-12T01:23:45.818Z,2.20
2023-08-12T01:26:12.309Z,2.00
2023-08-12T01:28:38.757Z,2.03
2023-08-12T01:31:13.194Z,2.17
2023-08-12T01:33:53.765Z,2.20
2023-08-12T01:36:22.409Z,2.58
2023-08-12T01:38:52.339Z,2.83
2023-08-12T01:41:21.687Z,2.50
2023-08-12T01:43:48.441Z,2.53
2023-08-12T01:46:16.347Z,2.40
2023-08-12T01:48:42.817Z,2.40
2023-08-12T01:51:09.422Z,3.20
2023-08-12T01:53:35.958Z,2.42
2023-08-12T01:56:02.412Z,2.25
2023-08-12T01:58:28.986Z,2.38
2023-08-12T02:00:55.577Z,2.60
2023-08-12T02:03:22.194Z,2.75
2023-08-12T02:05:48.822Z,2.42
2023-08-12T02:08:15.323Z,2.65
2023-08-12T02:10:41.815Z,2.80
2023-08-12T02:13:08.370Z,2.45
2023-08-12T02:15:35.136Z,2.70
2023-08-12T02:18:01.848Z,2.33
2023-08-12T02:20:28.505Z,2.45
2023-08-12T02:22:54.975Z,2.33
2023-08-12T02:25:21.441Z,2.10
2023-08-12T02:27:47.917Z,2.13
2023-08-12T02:30:14.494Z,2.05
2023-08-12T02:32:44.453Z,2.38
2023-08-12T02:35:11.645Z,2.78
2023-08-12T02:37:38.086Z,2.60
2023-08-12T02:40:08.600Z,2.20
2023-08-12T02:42:35.062Z,2.10
2023-08-12T02:45:01.620Z,2.08
2023-08-12T02:47:28.761Z,2.45
2023-08-12T02:49:55.307Z,1.95
2023-08-12T02:52:21.817Z,2.20
2023-08-12T02:54:48.470Z,2.17
2023-08-12T02:57:14.952Z,2.42
2023-08-12T02:59:41.504Z,3.30
2023-08-12T03:02:08.128Z,2.35
2023-08-12T03:04:34.611Z,2.72
2023-08-12T03:07:01.119Z,2.55
2023-08-12T03:09:28.623Z,2.38
2023-08-12T03:11:55.094Z,2.03
2023-08-12T03:14:22.850Z,2.38
2023-08-12T03:16:49.362Z,2.42
2023-08-12T03:19:15.862Z,2.13
2023-08-12T03:21:43.236Z,2.50
2023-08-12T03:24:09.688Z,2.05
2023-08-12T03:26:37.132Z,2.30
2023-08-12T03:29:03.735Z,2.72
2023-08-12T03:31:30.358Z,2.20
2023-08-12T03:33:57.489Z,2.17
2023-08-12T03:36:23.985Z,1.83
2023-08-12T03:38:50.520Z,2.30
2023-08-12T03:41:21.669Z,2.30
2023-08-12T03:43:48.817Z,2.30
2023-08-12T03:46:18.845Z,2.47
2023-08-12T03:48:46.133Z,2.58
2023-08-12T03:51:12.740Z,2.67
2023-08-12T03:53:39.333Z,2.22
2023-08-12T03:56:06.408Z,2.42
2023-08-12T03:58:33.593Z,2.65
2023-08-12T04:01:00.374Z,2.35
2023-08-12T04:03:26.949Z,2.65
2023-08-12T04:05:53.930Z,2.55
2023-08-12T04:08:23.914Z,2.67
2023-08-12T04:10:51.841Z,2.60
2023-08-12T04:13:18.640Z,2.35
2023-08-12T04:15:50.509Z,2.80
2023-08-12T04:18:17.085Z,2.90
2023-08-12T04:20:43.539Z,2.67
2023-08-12T04:23:09.996Z,2.60
2023-08-12T04:25:36.599Z,2.70
2023-08-12T04:28:03.208Z,2.40
2023-08-12T04:30:32.025Z,3.08
2023-08-12T04:32:58.608Z,3.25
2023-08-12T04:35:27.927Z,3.13
2023-08-12T04:37:55.400Z,2.58
2023-08-12T04:40:23.534Z,2.78
2023-08-12T04:42:49.981Z,2.70
2023-08-12T04:45:16.589Z,2.90
2023-08-12T04:47:43.300Z,2.83
2023-08-12T04:50:12.623Z,2.30
2023-08-12T04:52:39.159Z,2.40
2023-08-12T04:55:06.121Z,3.03
2023-08-12T04:57:32.599Z,2.40
2023-08-12T04:59:59.081Z,2.88
2023-08-12T05:02:26.005Z,2.75
2023-08-12T05:04:53.051Z,2.25
2023-08-12T05:07:21.438Z,2.70
2023-08-12T05:09:47.985Z,2.47
2023-08-12T05:12:16.362Z,2.50
2023-08-12T05:14:42.874Z,2.60
2023-08-12T05:17:09.618Z,2.30
2023-08-12T05:19:37.065Z,2.10
2023-08-12T05:22:03.846Z,2.60
2023-08-12T05:24:30.341Z,2.05
2023-08-12T05:26:57.172Z,2.35
2023-08-12T05:29:23.656Z,2.58
2023-08-12T05:31:50.209Z,2.65
2023-08-12T05:34:16.896Z,2.65
2023-08-12T05:36:43.373Z,3.00
2023-08-12T05:39:10.057Z,2.65
2023-08-12T05:41:36.719Z,2.38
2023-08-12T05:44:03.285Z,2.80
2023-08-12T05:46:29.737Z,2.90
2023-08-12T05:48:56.290Z,2.67
2023-08-12T05:51:22.783Z,2.50
2023-08-12T05:53:49.924Z,2.80
2023-08-12T05:56:16.485Z,3.03
2023-08-12T05:58:42.940Z,2.90
2023-08-12T06:01:09.402Z,2.63
2023-08-12T06:03:35.927Z,2.90
2023-08-12T06:06:02.407Z,2.58
2023-08-12T06:08:28.868Z,2.63
2023-08-12T06:10:55.330Z,4.38
2023-08-12T06:13:21.773Z,3.75
2023-08-12T06:15:48.250Z,3.80
2023-08-12T06:18:14.770Z,3.20
2023-08-12T06:20:41.617Z,2.85
2023-08-12T06:23:08.134Z,2.70
2023-08-12T06:25:37.068Z,2.75
2023-08-12T06:28:05.575Z,2.67
2023-08-12T06:30:32.060Z,2.35
2023-08-12T06:32:58.546Z,2.53
2023-08-12T06:35:24.996Z,2.08
2023-08-12T06:37:51.528Z,2.42
2023-08-12T06:40:18.268Z,2.60
2023-08-12T06:42:44.746Z,2.42
2023-08-12T06:45:11.514Z,2.17
2023-08-12T06:47:38.154Z,2.38
2023-08-12T06:50:05.060Z,2.55
2023-08-12T06:52:31.500Z,3.58
2023-08-12T06:54:58.031Z,4.70
2023-08-12T06:57:24.504Z,3.92
2023-08-12T06:59:51.040Z,2.72
2023-08-12T07:02:17.748Z,2.53
2023-08-12T07:04:44.203Z,2.08
2023-08-12T07:07:10.741Z,2.75
2023-08-12T07:09:37.237Z,2.28
2023-08-12T07:12:05.016Z,2.55
2023-08-12T07:14:31.462Z,2.17
2023-08-12T07:16:57.937Z,2.17
2023-08-12T07:19:24.420Z,2.22
2023-08-12T07:21:50.901Z,2.55
2023-08-12T07:24:17.369Z,2.67
2023-08-12T07:26:43.946Z,3.42
2023-08-12T07:29:11.042Z,3.20
2023-08-12T07:31:37.510Z,2.70
2023-08-12T07:34:04.092Z,2.67
2023-08-12T07:36:30.564Z,2.60
2023-08-12T07:38:57.163Z,2.28
2023-08-12T07:41:23.816Z,2.45
2023-08-12T07:43:50.248Z,2.33
2023-08-12T07:46:16.787Z,2.42
2023-08-12T07:48:43.323Z,2.13
2023-08-12T07:51:10.222Z,2.00
2023-08-12T07:53:36.692Z,2.20
2023-08-12T07:56:03.229Z,3.08
2023-08-12T07:58:31.067Z,2.22
2023-08-12T08:00:57.537Z,1.98
2023-08-12T08:03:24.046Z,1.85
2023-08-12T08:05:50.501Z,2.25
2023-08-12T08:08:16.941Z,2.30
2023-08-12T08:10:43.375Z,1.98
2023-08-12T08:13:09.874Z,2.08
2023-08-12T08:15:36.408Z,2.03
2023-08-12T08:18:05.213Z,1.90
2023-08-12T08:20:32.090Z,1.80
2023-08-12T08:22:58.606Z,2.42
2023-08-12T08:25:25.071Z,1.90
2023-08-12T08:27:51.583Z,2.03
2023-08-12T08:30:18.144Z,2.40
2023-08-12T08:32:44.629Z,2.22
2023-08-12T08:35:11.264Z,2.00
2023-08-12T08:37:37.746Z,2.65
2023-08-12T08:40:04.552Z,2.40
2023-08-12T08:42:32.253Z,2.08
2023-08-12T08:45:02.523Z,2.20
2023-08-12T08:47:29.145Z,1.90
2023-08-12T08:49:59.727Z,1.98
2023-08-12T08:52:27.017Z,2.00
2023-08-12T08:54:54.241Z,1.60
2023-08-12T08:57:24.983Z,2.00
2023-08-12T09:02:26.276Z,1.70
2023-08-12T09:04:53.927Z,1.85
2023-08-12T09:07:21.941Z,1.65
2023-08-12T09:09:50.467Z,1.67
2023-08-12T09:12:17.802Z,1.92
2023-08-12T09:14:44.765Z,1.77
2023-08-12T09:17:11.493Z,2.00
2023-08-12T09:19:38.179Z,1.98
2023-08-12T09:22:06.441Z,2.03
2023-08-12T09:24:33.231Z,2.25
2023-08-12T09:26:59.748Z,2.10
2023-08-12T09:29:33.897Z,1.98
2023-08-12T09:32:20.041Z,2.58
2023-08-12T09:37:17.195Z,2.05
2023-08-12T09:39:44.001Z,1.75
2023-08-12T09:42:11.248Z,1.77
2023-08-12T09:44:41.407Z,2.05
2023-08-12T09:47:09.330Z,2.63
2023-08-12T09:49:36.531Z,2.10
2023-08-12T09:52:04.656Z,2.50
2023-08-12T09:54:34.567Z,2.10
2023-08-12T09:57:02.333Z,2.13
2023-08-12T09:59:36.302Z,2.08
2023-08-12T10:02:08.356Z,2.15
2023-08-12T10:04:45.715Z,1.85
2023-08-12T10:07:15.842Z,2.30
2023-08-12T10:09:43.850Z,2.10
2023-08-12T10:12:11.570Z,2.08
2023-08-12T10:14:39.341Z,1.90
2023-08-12T10:17:06.859Z,1.65
2023-08-12T10:19:34.917Z,2.05
2023-08-12T10:22:04.380Z,2.00
2023-08-12T10:24:31.200Z,2.22
2023-08-12T10:26:57.715Z,2.10
2023-08-12T10:29:25.609Z,2.10
2023-08-12T10:31:52.518Z,1.73
2023-08-12T10:34:26.211Z,1.80
2023-08-12T10:37:04.060Z,1.77
2023-08-12T10:39:35.178Z,1.92
2023-08-12T10:42:01.969Z,2.30
2023-08-12T10:44:55.276Z,1.88
2023-08-12T10:47:21.801Z,2.05
2023-08-12T10:49:54.147Z,2.05
2023-08-12T10:52:30.967Z,2.03
2023-08-12T10:55:27.080Z,1.88
2023-08-12T10:57:59.001Z,2.08
2023-08-12T11:00:28.177Z,1.85
2023-08-12T11:02:57.578Z,1.77
2023-08-12T11:05:25.527Z,1.80
2023-08-12T11:08:03.094Z,1.75
2023-08-12T11:10:36.365Z,1.98
2023-08-12T11:13:04.386Z,1.95
2023-08-12T11:15:33.010Z,2.30
2023-08-12T11:18:00.190Z,2.20
2023-08-12T11:20:30.191Z,1.80
2023-08-12T11:22:59.370Z,2.10
2023-08-12T11:25:26.531Z,2.00
2023-08-12T11:27:52.985Z,1.60
2023-08-12T11:30:21.360Z,1.42
2023-08-12T11:32:48.986Z,1.80
2023-08-12T11:35:16.905Z,1.85
2023-08-12T11:37:46.292Z,1.85
2023-08-12T11:40:15.653Z,1.98
2023-08-12T11:42:45.514Z,2.10
2023-08-12T11:45:12.677Z,2.13
2023-08-12T11:47:41.117Z,2.00
2023-08-12T11:50:12.057Z,2.10
2023-08-12T11:52:39.777Z,2.10
2023-08-12T11:55:07.246Z,2.60
2023-08-12T11:57:35.497Z,2.00
2023-08-12T12:00:06.188Z,2.20
2023-08-12T12:02:47.828Z,2.63
2023-08-12T12:05:14.644Z,2.20
2023-08-12T12:07:41.296Z,1.63
2023-08-12T12:10:08.616Z,2.15
2023-08-12T12:12:36.747Z,1.63
2023-08-12T12:15:04.696Z,1.80
2023-08-12T12:17:31.307Z,1.65
2023-08-12T12:20:00.020Z,1.50
2023-08-12T12:22:30.589Z,2.15
2023-08-12T12:25:01.324Z,1.92
2023-08-12T12:27:28.335Z,1.90
2023-08-12T12:29:55.121Z,2.55
2023-08-12T12:32:22.330Z,2.33
2023-08-12T12:34:49.015Z,2.08
2023-08-12T12:37:15.739Z,2.05
2023-08-12T12:39:42.723Z,1.90
2023-08-12T12:42:09.660Z,1.92
2023-08-12T12:44:36.208Z,2.10
2023-08-12T12:47:03.705Z,2.08
2023-08-12T12:49:30.200Z,2.10
2023-08-12T12:51:56.962Z,1.92
2023-08-12T12:54:23.496Z,2.03
2023-08-12T12:56:50.003Z,2.22
2023-08-12T12:59:16.644Z,2.03
2023-08-12T13:01:43.236Z,2.13
2023-08-12T13:04:09.786Z,2.08
2023-08-12T13:06:36.950Z,2.10
2023-08-12T13:09:03.769Z,1.88
2023-08-12T13:11:30.534Z,1.85
2023-08-12T13:13:56.974Z,2.00
2023-08-12T13:16:23.443Z,1.80
2023-08-12T13:18:49.910Z,2.03
2023-08-12T13:21:19.182Z,2.00
2023-08-12T13:23:45.940Z,2.17
2023-08-12T13:26:12.527Z,1.70
2023-08-12T13:28:38.956Z,1.70
2023-08-12T13:31:05.475Z,2.20
2023-08-12T13:33:31.948Z,1.88
2023-08-12T13:35:58.410Z,1.90
2023-08-12T13:38:24.897Z,1.65
2023-08-12T13:40:51.383Z,2.25
2023-08-12T13:43:17.835Z,1.92
2023-08-12T13:45:44.323Z,2.13
2023-08-12T13:48:10.789Z,2.00
2023-08-12T13:50:37.813Z,2.05
2023-08-12T13:53:04.468Z,1.90
2023-08-12T13:55:30.920Z,1.73
2023-08-12T13:57:57.352Z,2.00
2023-08-12T14:00:25.295Z,1.58
2023-08-12T14:02:52.430Z,1.70
2023-08-12T14:05:19.029Z,1.80
2023-08-12T14:07:45.583Z,2.00
2023-08-12T14:10:12.040Z,2.05
2023-08-12T14:12:38.676Z,2.25
2023-08-12T14:15:05.757Z,2.10
2023-08-12T14:17:32.294Z,2.58
2023-08-12T14:20:01.694Z,2.30
2023-08-12T14:22:29.013Z,2.17
2023-08-12T14:27:22.929Z,2.13
2023-08-12T14:29:49.714Z,2.50
2023-08-12T14:32:17.651Z,2.55
2023-08-12T14:34:46.284Z,2.45
2023-08-12T14:37:13.681Z,1.60
2023-08-12T14:39:40.550Z,2.10
2023-08-12T14:42:09.372Z,1.73
2023-08-12T14:44:37.364Z,2.00
2023-08-12T14:47:05.034Z,1.83
2023-08-12T14:49:31.483Z,1.85
2023-08-12T14:51:57.994Z,1.80
2023-08-12T14:54:24.560Z,1.83
2023-08-12T14:56:51.020Z,2.28
2023-08-12T14:59:17.489Z,1.75
2023-08-12T15:01:43.925Z,2.28
2023-08-12T15:04:10.384Z,2.35
2023-08-12T15:06:36.858Z,1.75
2023-08-12T15:09:03.570Z,1.80
2023-08-12T15:11:30.038Z,1.70
2023-08-12T15:13:56.501Z,1.90
2023-08-12T15:16:22.988Z,1.95
2023-08-12T15:18:49.506Z,2.13
2023-08-12T15:21:17.159Z,1.60
2023-08-12T15:23:43.642Z,1.50
2023-08-12T15:26:10.108Z,1.90
2023-08-12T15:28:36.638Z,1.60
2023-08-12T15:31:03.172Z,2.03
2023-08-12T15:33:29.793Z,1.98
2023-08-12T15:35:56.388Z,2.25
2023-08-12T15:38:22.872Z,2.17
2023-08-12T15:40:49.378Z,2.47
2023-08-12T15:43:15.816Z,1.77
2023-08-12T15:45:43.421Z,2.40
2023-08-12T15:48:10.117Z,2.55
2023-08-12T15:50:36.735Z,2.30
2023-08-12T15:53:04.094Z,2.20
2023-08-12T15:55:30.742Z,2.00
2023-08-12T15:57:57.246Z,2.65
2023-08-12T16:00:23.950Z,2.20
2023-08-12T16:02:51.162Z,2.05
2023-08-12T16:05:18.026Z,1.98
2023-08-12T16:07:44.521Z,2.13
2023-08-12T16:10:11.080Z,1.90
2023-08-12T16:12:37.573Z,2.17
2023-08-12T16:15:04.324Z,1.70
2023-08-12T16:17:30.808Z,2.55
2023-08-12T16:19:57.386Z,2.00
2023-08-12T16:22:23.841Z,1.95
2023-08-12T16:24:50.333Z,2.00
2023-08-12T16:27:16.982Z,2.10
2023-08-12T16:29:43.431Z,2.10
2023-08-12T16:32:09.892Z,1.77
2023-08-12T16:34:36.401Z,1.83
2023-08-12T16:39:36.014Z,2.10
2023-08-12T16:42:02.560Z,1.95
2023-08-12T16:44:29.050Z,2.05
2023-08-12T16:46:55.548Z,2.03
2023-08-12T16:49:22.091Z,2.35
2023-08-12T16:51:48.560Z,2.10
2023-08-12T16:54:15.090Z,1.95
2023-08-12T16:56:41.548Z,2.20
2023-08-12T16:59:08.077Z,2.03
2023-08-12T17:01:34.604Z,2.00
2023-08-12T17:04:02.620Z,1.77
2023-08-12T17:06:29.153Z,2.10
2023-08-12T17:08:55.604Z,2.20
2023-08-12T17:11:22.057Z,1.83
2023-08-12T17:13:48.554Z,1.75
2023-08-12T17:16:15.072Z,1.75
2023-08-12T17:18:41.577Z,1.73
2023-08-12T17:21:08.667Z,1.92
2023-08-12T17:23:35.195Z,1.80
2023-08-12T17:26:01.636Z,1.73
2023-08-12T17:28:28.104Z,1.80
2023-08-12T17:30:54.618Z,1.63
2023-08-12T17:33:21.151Z,1.80
2023-08-12T17:35:47.625Z,1.90
2023-08-12T17:38:14.206Z,2.10
2023-08-12T17:40:40.715Z,2.10
2023-08-12T17:43:07.185Z,1.90
2023-08-12T17:45:33.686Z,1.98
2023-08-12T17:48:04.086Z,1.95
2023-08-12T17:50:31.005Z,1.80
2023-08-12T17:52:57.528Z,1.60
2023-08-12T17:55:24.000Z,2.00
2023-08-12T17:57:50.487Z,2.35
2023-08-12T18:00:18.216Z,1.88
2023-08-12T18:02:44.855Z,2.00
2023-08-12T18:05:11.422Z,1.55
2023-08-12T18:07:37.997Z,2.25
2023-08-12T18:10:04.727Z,2.08
2023-08-12T18:12:31.367Z,1.70
2023-08-12T18:14:57.851Z,2.13
2023-08-12T18:17:25.139Z,1.95
2023-08-12T18:19:51.865Z,1.88
2023-08-12T18:22:18.996Z,1.80
2023-08-12T18:24:45.596Z,2.08
2023-08-12T18:27:12.537Z,1.75
2023-08-12T18:29:40.563Z,2.40
2023-08-12T18:32:07.023Z,2.10
2023-08-12T18:34:33.472Z,2.00
2023-08-12T18:36:59.941Z,2.17
2023-08-12T18:39:26.437Z,2.13
2023-08-12T18:41:52.925Z,1.98
2023-08-12T18:44:19.368Z,1.80
2023-08-12T18:46:45.971Z,2.45
2023-08-12T18:49:14.132Z,2.30
2023-08-12T18:51:40.629Z,1.92
2023-08-12T18:54:07.267Z,2.40
2023-08-12T18:56:33.845Z,2.40
2023-08-12T18:59:00.295Z,2.05
2023-08-12T19:01:26.756Z,2.05
2023-08-12T19:03:53.219Z,2.30
2023-08-12T19:06:19.741Z,2.13
2023-08-12T19:08:46.209Z,2.60
2023-08-12T19:11:12.739Z,2.50
2023-08-12T19:13:39.179Z,2.17
2023-08-12T19:16:05.738Z,2.33
2023-08-12T19:18:32.373Z,2.13
2023-08-12T19:20:58.838Z,2.05
2023-08-12T19:23:25.289Z,2.20
2023-08-12T19:25:53.639Z,2.38
2023-08-12T19:28:20.081Z,2.60
2023-08-12T19:30:50.593Z,2.03
2023-08-12T19:33:19.131Z,2.45
2023-08-12T19:35:46.414Z,2.13
2023-08-12T19:38:14.372Z,2.30
2023-08-12T19:40:41.087Z,2.42
2023-08-12T19:43:08.036Z,2.22
2023-08-12T19:45:34.596Z,2.60
2023-08-12T19:48:01.147Z,2.60
2023-08-12T19:50:28.482Z,2.72
2023-08-12T19:52:55.162Z,2.53
2023-08-12T19:55:21.783Z,2.50
2023-08-12T19:57:48.305Z,2.70
2023-08-12T20:00:15.233Z,2.55
2023-08-12T20:02:43.293Z,2.15
2023-08-12T20:05:17.163Z,2.70
2023-08-12T20:07:48.328Z,2.88
2023-08-12T20:10:20.246Z,2.80
2023-08-12T20:12:47.432Z,2.75
2023-08-12T20:15:14.066Z,2.53
2023-08-12T20:17:41.236Z,2.95
2023-08-12T20:20:13.041Z,2.83
2023-08-12T20:22:59.155Z,2.80
2023-08-12T20:25:30.535Z,2.33
2023-08-12T20:27:58.930Z,2.80
2023-08-12T20:30:26.342Z,2.70
2023-08-12T20:32:52.978Z,2.65
2023-08-12T20:35:19.510Z,2.70
2023-08-12T20:37:45.949Z,2.83
2023-08-12T20:40:12.661Z,2.60
2023-08-12T20:42:39.128Z,2.53
2023-08-12T20:45:05.917Z,2.72
2023-08-12T20:47:32.400Z,2.78
2023-08-12T20:49:58.977Z,2.72
2023-08-12T20:52:25.423Z,2.38
2023-08-12T20:54:53.251Z,2.40
2023-08-12T20:57:20.008Z,2.20
2023-08-12T20:59:47.523Z,2.10
2023-08-12T21:02:14.409Z,2.35
2023-08-12T21:04:41.096Z,2.83
2023-08-12T21:07:07.640Z,2.45
2023-08-12T21:09:34.395Z,2.10
2023-08-12T21:12:03.318Z,2.78
2023-08-12T21:14:29.861Z,2.08
2023-08-12T21:16:56.321Z,2.42
2023-08-12T21:19:22.823Z,2.20
2023-08-12T21:21:49.311Z,2.35
2023-08-12T21:24:15.740Z,2.30
2023-08-12T21:26:42.243Z,2.47
2023-08-12T21:29:08.691Z,2.65
2023-08-12T21:31:35.238Z,2.40
2023-08-12T21:34:01.758Z,2.50
2023-08-12T21:36:28.236Z,2.17
2023-08-12T21:38:54.742Z,2.42
2023-08-12T21:41:21.216Z,2.50
2023-08-12T21:43:48.354Z,2.70
2023-08-12T21:46:14.936Z,2.25
2023-08-12T21:48:41.431Z,2.88
2023-08-12T21:51:09.644Z,2.28
2023-08-12T21:53:36.141Z,2.22
2023-08-12T21:56:02.623Z,2.38
2023-08-12T21:58:29.084Z,2.28
2023-08-12T22:00:58.519Z,2.42
2023-08-12T22:03:25.040Z,2.42
2023-08-12T22:05:52.046Z,2.33
2023-08-12T22:08:18.556Z,2.00
2023-08-12T22:10:45.570Z,2.13
2023-08-12T22:13:12.174Z,2.55
2023-08-12T22:15:38.898Z,2.17
2023-08-12T22:18:05.917Z,2.05
2023-08-12T22:20:32.520Z,2.95
2023-08-12T22:22:58.983Z,1.90
2023-08-12T22:25:25.573Z,2.25
2023-08-12T22:27:52.243Z,2.22
2023-08-12T22:30:18.791Z,2.20
2023-08-12T22:32:45.851Z,2.50
2023-08-12T22:35:12.432Z,2.35
2023-08-12T22:37:38.903Z,2.17
2023-08-12T22:40:06.346Z,2.50
2023-08-12T22:42:32.835Z,2.40
2023-08-12T22:44:59.308Z,2.50
2023-08-12T22:47:25.831Z,2.50
2023-08-12T22:49:52.313Z,2.40
2023-08-12T22:52:18.771Z,2.28
2023-08-12T22:54:45.231Z,2.78
2023-08-12T22:57:11.700Z,2.10
2023-08-12T22:59:38.141Z,2.63
2023-08-12T23:02:04.768Z,2.53
2023-08-12T23:04:31.280Z,2.70
2023-08-12T23:06:57.746Z,2.08
2023-08-12T23:09:24.238Z,2.63
2023-08-12T23:11:50.779Z,2.90
2023-08-12T23:14:17.319Z,2.38
2023-08-12T23:16:43.884Z,2.30
2023-08-12T23:19:12.259Z,2.38
2023-08-12T23:21:39.119Z,2.70
2023-08-12T23:24:06.000Z,2.30
2023-08-12T23:26:32.438Z,2.50
2023-08-12T23:28:58.909Z,2.30
2023-08-12T23:31:25.429Z,2.15
2023-08-12T23:33:52.002Z,2.70
2023-08-12T23:36:19.235Z,2.65
2023-08-12T23:38:45.968Z,2.60
2023-08-12T23:41:12.909Z,2.33
2023-08-12T23:43:39.390Z,2.63
2023-08-12T23:46:06.059Z,2.28
2023-08-12T23:48:32.584Z,2.42
2023-08-12T23:50:59.026Z,2.53
2023-08-12T23:53:25.571Z,3.00
2023-08-12T23:55:52.054Z,2.60
2023-08-12T23:58:18.491Z,2.53
